createdAt,value
2023-03-15T00:02:01.296Z,1.58
2023-03-15T00:04:28.966Z,1.77
2023-03-15T00:06:56.182Z,1.23
2023-03-15T00:09:24.309Z,1.60
2023-03-15T00:11:51.877Z,1.65
2023-03-15T00:14:19.490Z,1.50
2023-03-15T00:16:46.645Z,1.60
2023-03-15T00:19:14.060Z,1.80
2023-03-15T00:21:43.348Z,1.65
2023-03-15T00:24:13.503Z,2.03
2023-03-15T00:26:40.683Z,2.20
2023-03-15T00:29:07.837Z,10.30
2023-03-15T00:31:36.012Z,2.20
2023-03-15T00:34:03.228Z,2.22
2023-03-15T00:36:30.375Z,2.00
2023-03-15T00:38:57.645Z,2.00
2023-03-15T00:41:25.288Z,1.85
2023-03-15T00:43:52.661Z,1.90
2023-03-15T00:46:20.438Z,2.00
2023-03-15T00:48:51.291Z,1.95
2023-03-15T00:51:19.749Z,1.90
2023-03-15T00:53:47.267Z,2.00
2023-03-15T00:56:19.466Z,2.25
2023-03-15T00:58:46.756Z,2.22
2023-03-15T01:01:15.862Z,1.85
2023-03-15T01:03:43.533Z,1.85
2023-03-15T01:06:12.945Z,2.50
2023-03-15T01:08:40.156Z,2.47
2023-03-15T01:11:08.435Z,2.65
2023-03-15T01:13:36.123Z,3.08
2023-03-15T01:16:03.425Z,3.60
2023-03-15T01:18:31.065Z,3.13
2023-03-15T01:20:58.381Z,3.70
2023-03-15T01:23:25.531Z,3.67
2023-03-15T01:25:52.718Z,3.47
2023-03-15T01:28:19.868Z,3.20
2023-03-15T01:30:51.244Z,3.60
2023-03-15T01:33:18.389Z,3.90
2023-03-15T01:35:45.608Z,3.10
2023-03-15T01:38:12.883Z,2.67
2023-03-15T01:40:44.145Z,3.10
2023-03-15T01:43:24.265Z,2.80
2023-03-15T01:45:54.574Z,3.17
2023-03-15T01:48:23.773Z,2.63
2023-03-15T01:50:51.215Z,3.40
2023-03-15T01:53:18.524Z,2.30
2023-03-15T01:55:45.667Z,2.85
2023-03-15T01:58:12.829Z,3.17
2023-03-15T02:00:40.088Z,3.88
2023-03-15T02:03:09.341Z,3.72
2023-03-15T02:05:39.465Z,3.55
2023-03-15T02:08:08.775Z,4.18
2023-03-15T02:10:41.052Z,5.53
2023-03-15T02:13:08.822Z,6.45
2023-03-15T02:15:35.940Z,7.20
2023-03-15T02:18:03.049Z,6.45
2023-03-15T02:20:36.106Z,6.45
2023-03-15T02:23:05.942Z,8.77
2023-03-15T02:25:44.878Z,8.93
2023-03-15T02:28:13.719Z,9.77
2023-03-15T02:30:41.103Z,11.13
2023-03-15T02:33:11.647Z,10.65
2023-03-15T02:35:38.801Z,11.20
2023-03-15T02:38:05.984Z,10.82
2023-03-15T02:40:33.138Z,11.45
2023-03-15T02:43:03.092Z,9.52
2023-03-15T02:45:32.035Z,9.52
2023-03-15T02:48:00.034Z,9.50
2023-03-15T02:50:27.149Z,9.50
2023-03-15T02:52:54.284Z,11.23
2023-03-15T02:55:21.798Z,10.10
2023-03-15T02:57:49.320Z,10.10
2023-03-15T03:00:16.915Z,9.43
2023-03-15T03:02:45.159Z,9.05
2023-03-15T03:05:13.072Z,8.93
2023-03-15T03:07:42.776Z,6.70
2023-03-15T03:10:10.547Z,6.65
2023-03-15T03:12:37.737Z,5.47
2023-03-15T03:15:05.164Z,6.10
2023-03-15T03:17:32.427Z,5.45
2023-03-15T03:19:59.519Z,6.75
2023-03-15T03:22:26.585Z,6.95
2023-03-15T03:24:53.790Z,7.85
2023-03-15T03:27:21.425Z,5.93
2023-03-15T03:29:48.570Z,5.28
2023-03-15T03:32:15.697Z,6.40
2023-03-15T03:34:48.227Z,6.38
2023-03-15T03:39:42.305Z,6.50
2023-03-15T03:42:09.586Z,6.10
2023-03-15T03:44:36.814Z,6.32
2023-03-15T03:47:04.348Z,5.55
2023-03-15T03:49:31.490Z,7.00
2023-03-15T03:52:00.292Z,5.78
2023-03-15T03:54:28.074Z,6.40
2023-03-15T03:56:55.226Z,6.80
2023-03-15T03:59:22.306Z,7.40
2023-03-15T04:01:49.449Z,6.40
2023-03-15T04:04:16.803Z,6.75
2023-03-15T04:06:45.865Z,6.20
2023-03-15T04:09:16.912Z,6.63
2023-03-15T04:11:44.367Z,6.57
2023-03-15T04:14:12.066Z,7.35
2023-03-15T04:16:39.215Z,7.03
2023-03-15T04:19:06.401Z,6.75
2023-03-15T04:21:33.563Z,5.65
2023-03-15T04:24:01.225Z,5.35
2023-03-15T04:26:28.982Z,6.30
2023-03-15T04:28:56.872Z,6.30
2023-03-15T04:31:27.256Z,6.15
2023-03-15T04:33:55.055Z,5.43
2023-03-15T04:36:23.371Z,5.60
2023-03-15T04:38:50.533Z,6.95
2023-03-15T04:41:18.358Z,6.03
2023-03-15T04:43:45.843Z,5.00
2023-03-15T04:46:12.979Z,5.13
2023-03-15T04:48:41.569Z,5.97
2023-03-15T04:51:08.722Z,5.15
2023-03-15T04:53:35.825Z,5.53
2023-03-15T04:56:04.703Z,5.38
2023-03-15T04:58:32.009Z,6.07
2023-03-15T05:00:59.172Z,4.97
2023-03-15T05:03:26.329Z,5.47
2023-03-15T05:05:53.483Z,5.25
2023-03-15T05:08:20.848Z,5.75
2023-03-15T05:10:48.357Z,12.25
2023-03-15T05:13:15.495Z,23.70
2023-03-15T05:15:42.585Z,17.95
2023-03-15T05:18:09.684Z,7.47
2023-03-15T05:20:36.907Z,10.23
2023-03-15T05:23:04.626Z,6.93
2023-03-15T05:25:31.749Z,6.60
2023-03-15T05:27:58.870Z,16.10
2023-03-15T05:30:25.961Z,13.57
2023-03-15T05:32:53.122Z,8.23
2023-03-15T05:35:20.427Z,6.72
2023-03-15T05:37:47.588Z,5.70
2023-03-15T05:40:15.446Z,5.47
2023-03-15T05:42:42.572Z,12.93
2023-03-15T05:45:09.955Z,18.95
2023-03-15T05:47:37.132Z,21.75
2023-03-15T05:50:05.042Z,9.60
2023-03-15T05:52:32.411Z,7.50
2023-03-15T05:54:59.587Z,9.50
2023-03-15T05:57:26.732Z,10.98
2023-03-15T05:59:55.076Z,54.08
2023-03-15T06:02:22.280Z,8.68
2023-03-15T06:04:49.359Z,12.73
2023-03-15T06:07:16.609Z,11.40
2023-03-15T06:09:43.721Z,9.13
2023-03-15T06:12:11.012Z,14.75
2023-03-15T06:14:38.104Z,6.57
2023-03-15T06:17:05.244Z,3.90
2023-03-15T06:19:32.385Z,3.92
2023-03-15T06:21:59.548Z,3.38
2023-03-15T06:24:26.669Z,3.20
2023-03-15T06:26:54.855Z,5.45
2023-03-15T06:29:22.042Z,4.47
2023-03-15T06:31:49.590Z,3.28
2023-03-15T06:34:16.736Z,3.38
2023-03-15T06:36:44.179Z,2.67
2023-03-15T06:39:12.513Z,3.03
2023-03-15T06:41:41.695Z,2.63
2023-03-15T06:44:09.349Z,4.38
2023-03-15T06:46:36.521Z,2.33
2023-03-15T06:49:03.968Z,2.95
2023-03-15T06:51:31.065Z,2.63
2023-03-15T06:53:58.182Z,5.55
2023-03-15T06:56:25.318Z,4.47
2023-03-15T06:58:52.458Z,5.93
2023-03-15T07:01:19.587Z,4.10
2023-03-15T07:03:46.764Z,3.35
2023-03-15T07:06:13.880Z,3.22
2023-03-15T07:08:41.032Z,3.55
2023-03-15T07:11:08.214Z,2.97
2023-03-15T07:13:35.362Z,2.75
2023-03-15T07:16:02.456Z,2.72
2023-03-15T07:18:29.543Z,2.88
2023-03-15T07:21:00.835Z,3.50
2023-03-15T07:23:28.370Z,3.30
2023-03-15T07:25:56.057Z,3.30
2023-03-15T07:28:23.667Z,3.60
2023-03-15T07:31:01.750Z,3.00
2023-03-15T07:33:30.109Z,3.40
2023-03-15T07:35:57.341Z,5.90
2023-03-15T07:38:25.633Z,4.47
2023-03-15T07:40:53.069Z,3.53
2023-03-15T07:43:20.306Z,4.32
2023-03-15T07:45:47.584Z,4.13
2023-03-15T07:48:14.708Z,3.60
2023-03-15T07:50:42.044Z,4.80
2023-03-15T07:53:09.356Z,4.63
2023-03-15T07:55:36.509Z,4.68
2023-03-15T07:58:04.037Z,4.55
2023-03-15T08:00:31.271Z,3.28
2023-03-15T08:02:58.886Z,4.00
2023-03-15T08:05:28.961Z,3.72
2023-03-15T08:07:56.729Z,4.28
2023-03-15T08:10:23.962Z,4.57
2023-03-15T08:12:51.158Z,4.97
2023-03-15T08:15:18.411Z,3.65
2023-03-15T08:17:45.609Z,3.97
2023-03-15T08:20:14.902Z,3.20
2023-03-15T08:22:44.999Z,3.50
2023-03-15T08:25:13.140Z,3.55
2023-03-15T08:27:41.999Z,2.92
2023-03-15T08:30:12.034Z,2.03
2023-03-15T08:32:46.338Z,3.25
2023-03-15T08:35:15.725Z,3.40
2023-03-15T08:37:47.024Z,2.63
2023-03-15T08:40:19.200Z,2.97
2023-03-15T08:42:46.484Z,3.53
2023-03-15T08:45:13.780Z,2.88
2023-03-15T08:47:40.940Z,3.05
2023-03-15T08:50:09.605Z,2.97
2023-03-15T08:52:36.779Z,4.07
2023-03-15T08:55:04.842Z,2.63
2023-03-15T08:57:33.270Z,2.13
2023-03-15T09:00:01.730Z,8.05
2023-03-15T09:02:29.355Z,3.00
2023-03-15T09:04:56.484Z,2.67
2023-03-15T09:07:23.566Z,3.30
2023-03-15T09:09:54.185Z,2.92
2023-03-15T09:12:22.010Z,9.55
2023-03-15T09:14:49.115Z,5.07
2023-03-15T09:17:16.227Z,2.55
2023-03-15T09:19:43.368Z,2.67
2023-03-15T09:22:23.423Z,1.90
2023-03-15T09:24:52.578Z,2.35
2023-03-15T09:27:19.777Z,1.88
2023-03-15T09:29:46.926Z,2.00
2023-03-15T09:32:14.029Z,1.65
2023-03-15T09:34:42.223Z,2.13
2023-03-15T09:37:09.784Z,2.88
2023-03-15T09:39:36.914Z,1.60
2023-03-15T09:42:06.450Z,1.70
2023-03-15T09:44:33.812Z,1.90
2023-03-15T09:47:06.719Z,1.83
2023-03-15T09:49:38.150Z,2.15
2023-03-15T09:52:23.978Z,2.05
2023-03-15T09:54:53.715Z,1.60
2023-03-15T09:57:36.620Z,1.60
2023-03-15T10:02:33.216Z,1.83
2023-03-15T10:05:12.660Z,2.22
2023-03-15T10:07:39.777Z,1.88
2023-03-15T10:10:15.606Z,1.45
2023-03-15T10:12:45.126Z,2.55
2023-03-15T10:15:20.469Z,1.70
2023-03-15T10:18:11.027Z,2.78
2023-03-15T10:20:41.751Z,1.90
2023-03-15T10:23:13.847Z,1.90
2023-03-15T10:25:41.200Z,1.13
2023-03-15T10:28:37.631Z,1.65
2023-03-15T10:31:22.217Z,1.85
2023-03-15T10:33:54.027Z,1.80
2023-03-15T10:36:22.222Z,1.67
2023-03-15T10:38:50.468Z,1.55
2023-03-15T10:41:36.417Z,2.00
2023-03-15T10:44:05.618Z,1.42
2023-03-15T10:46:32.840Z,1.50
2023-03-15T10:49:09.149Z,1.55
2023-03-15T10:51:41.572Z,1.67
2023-03-15T10:54:14.578Z,1.83
2023-03-15T10:56:49.205Z,1.90
2023-03-15T10:59:17.653Z,1.90
2023-03-15T11:01:48.095Z,1.95
2023-03-15T11:04:17.271Z,2.22
2023-03-15T11:06:47.391Z,1.65
2023-03-15T11:09:16.230Z,1.60
2023-03-15T11:12:09.456Z,1.70
2023-03-15T11:14:41.280Z,1.98
2023-03-15T11:17:12.085Z,1.83
2023-03-15T11:19:42.181Z,1.40
2023-03-15T11:22:12.779Z,1.50
2023-03-15T11:24:40.670Z,1.77
2023-03-15T11:27:13.892Z,1.20
2023-03-15T11:29:43.632Z,1.60
2023-03-15T11:32:30.656Z,1.80
2023-03-15T11:35:05.294Z,1.38
2023-03-15T11:37:39.337Z,1.23
2023-03-15T11:40:23.357Z,2.03
2023-03-15T11:43:10.685Z,1.80
2023-03-15T11:45:44.133Z,3.67
2023-03-15T11:48:20.905Z,2.60
2023-03-15T11:50:48.180Z,2.25
2023-03-15T11:53:16.280Z,2.10
2023-03-15T11:55:48.469Z,1.48
2023-03-15T11:58:34.691Z,1.63
2023-03-15T12:01:02.834Z,1.60
2023-03-15T12:03:41.215Z,2.00
2023-03-15T12:06:12.890Z,1.73
2023-03-15T12:08:42.998Z,2.53
2023-03-15T12:11:13.775Z,2.58
2023-03-15T12:13:51.842Z,2.70
2023-03-15T12:16:21.962Z,2.10
2023-03-15T12:18:49.119Z,2.60
2023-03-15T12:21:20.133Z,3.53
2023-03-15T12:23:49.573Z,2.20
2023-03-15T12:26:24.170Z,2.22
2023-03-15T12:28:53.441Z,2.40
2023-03-15T12:31:21.254Z,1.70
2023-03-15T12:33:53.174Z,2.70
2023-03-15T12:36:37.687Z,1.63
2023-03-15T12:39:10.792Z,1.50
2023-03-15T12:41:39.522Z,1.60
2023-03-15T12:44:26.127Z,1.48
2023-03-15T12:46:53.235Z,1.65
2023-03-15T12:49:25.200Z,1.70
2023-03-15T12:51:59.231Z,1.65
2023-03-15T12:54:31.838Z,1.50
2023-03-15T12:57:00.793Z,1.63
2023-03-15T12:59:43.601Z,1.85
2023-03-15T13:04:37.774Z,1.85
2023-03-15T13:07:20.118Z,1.83
2023-03-15T13:09:58.110Z,2.10
2023-03-15T13:12:29.815Z,2.60
2023-03-15T13:15:00.038Z,2.37
2023-03-15T13:17:36.942Z,2.80
2023-03-15T13:20:13.675Z,2.08
2023-03-15T13:22:55.978Z,2.33
2023-03-15T13:25:28.145Z,2.40
2023-03-15T13:27:56.803Z,2.92
2023-03-15T13:30:38.746Z,2.78
2023-03-15T13:33:07.526Z,2.57
2023-03-15T13:35:42.053Z,2.70
2023-03-15T13:38:21.341Z,2.40
2023-03-15T13:40:48.480Z,2.58
2023-03-15T13:43:15.649Z,3.03
2023-03-15T13:45:43.462Z,2.95
2023-03-15T13:48:12.303Z,2.13
2023-03-15T13:50:40.456Z,2.35
2023-03-15T13:53:07.651Z,2.00
2023-03-15T13:55:36.163Z,2.50
2023-03-15T13:58:06.961Z,2.20
2023-03-15T14:00:35.535Z,3.13
2023-03-15T14:03:05.310Z,2.63
2023-03-15T14:05:33.663Z,2.10
2023-03-15T14:08:05.976Z,1.98
2023-03-15T14:10:37.215Z,2.33
2023-03-15T14:13:27.561Z,2.10
2023-03-15T14:16:01.483Z,2.20
2023-03-15T14:18:33.114Z,1.60
2023-03-15T14:21:06.240Z,2.38
2023-03-15T14:23:36.035Z,2.70
2023-03-15T14:26:11.220Z,2.88
2023-03-15T14:28:38.630Z,3.28
2023-03-15T14:31:06.172Z,3.75
2023-03-15T14:33:40.735Z,3.45
2023-03-15T14:36:28.241Z,3.08
2023-03-15T14:38:57.660Z,3.70
2023-03-15T14:41:33.354Z,4.15
2023-03-15T14:44:02.921Z,2.70
2023-03-15T14:46:33.001Z,2.72
2023-03-15T14:49:00.200Z,2.65
2023-03-15T14:51:28.727Z,6.15
2023-03-15T14:53:57.415Z,34.90
2023-03-15T14:56:25.089Z,13.50
2023-03-15T14:58:55.825Z,3.35
2023-03-15T15:01:27.683Z,3.40
2023-03-15T15:04:00.328Z,8.57
2023-03-15T15:08:56.281Z,14.45
2023-03-15T15:11:23.524Z,4.38
2023-03-15T15:13:50.704Z,3.03
2023-03-15T15:16:18.038Z,2.08
2023-03-15T15:18:45.218Z,3.25
2023-03-15T15:21:12.394Z,3.08
2023-03-15T15:23:54.793Z,2.33
2023-03-15T15:26:28.212Z,2.45
2023-03-15T15:28:56.419Z,2.47
2023-03-15T15:31:25.159Z,2.30
2023-03-15T15:33:53.171Z,2.85
2023-03-15T15:36:22.993Z,2.03
2023-03-15T15:38:50.589Z,2.10
2023-03-15T15:41:28.400Z,1.63
2023-03-15T15:43:55.560Z,1.70
2023-03-15T15:46:23.905Z,1.45
2023-03-15T15:48:51.719Z,2.42
2023-03-15T15:51:32.163Z,2.28
2023-03-15T15:54:00.962Z,2.63
2023-03-15T15:56:33.376Z,2.00
2023-03-15T15:59:01.395Z,1.80
2023-03-15T16:01:28.619Z,2.55
2023-03-15T16:03:55.783Z,1.92
2023-03-15T16:06:23.165Z,2.00
2023-03-15T16:08:51.558Z,3.10
2023-03-15T16:11:19.754Z,2.90
2023-03-15T16:13:49.062Z,2.85
2023-03-15T16:16:17.179Z,2.38
2023-03-15T16:18:44.638Z,2.40
2023-03-15T16:21:33.681Z,2.50
2023-03-15T16:24:10.077Z,2.63
2023-03-15T16:26:38.575Z,2.60
2023-03-15T16:29:22.994Z,2.55
2023-03-15T16:31:51.226Z,2.50
2023-03-15T16:34:19.598Z,2.53
2023-03-15T16:36:49.570Z,2.58
2023-03-15T16:39:17.261Z,4.97
2023-03-15T16:41:44.485Z,2.88
2023-03-15T16:44:12.472Z,3.92
2023-03-15T16:46:39.629Z,3.63
2023-03-15T16:49:06.838Z,5.03
2023-03-15T16:51:34.363Z,3.50
2023-03-15T16:54:12.810Z,3.53
2023-03-15T16:56:45.532Z,3.40
2023-03-15T16:59:16.667Z,3.30
2023-03-15T17:01:44.587Z,3.92
2023-03-15T17:04:12.277Z,3.92
2023-03-15T17:06:39.649Z,4.30
2023-03-15T17:09:11.478Z,4.22
2023-03-15T17:11:39.753Z,3.67
2023-03-15T17:14:08.237Z,4.55
2023-03-15T17:16:35.467Z,3.97
2023-03-15T17:19:03.116Z,6.65
2023-03-15T17:21:32.849Z,27.95
2023-03-15T17:24:00.050Z,5.88
2023-03-15T17:26:31.341Z,8.07
2023-03-15T17:28:58.507Z,5.30
2023-03-15T17:31:26.111Z,5.75
2023-03-15T17:33:53.231Z,5.32
2023-03-15T17:36:22.337Z,5.05
2023-03-15T17:38:49.952Z,7.78
2023-03-15T17:41:21.631Z,7.15
2023-03-15T17:43:49.460Z,8.17
2023-03-15T17:46:18.599Z,6.60
2023-03-15T17:48:46.809Z,6.05
2023-03-15T17:51:17.676Z,7.55
2023-03-15T17:53:44.792Z,8.73
2023-03-15T17:56:13.116Z,7.18
2023-03-15T17:58:40.656Z,7.60
2023-03-15T18:01:15.219Z,11.50
2023-03-15T18:03:45.034Z,8.93
2023-03-15T18:06:13.174Z,7.43
2023-03-15T18:08:40.383Z,7.72
2023-03-15T18:11:16.928Z,7.60
2023-03-15T18:13:44.179Z,7.15
2023-03-15T18:16:12.211Z,6.10
2023-03-15T18:18:39.338Z,6.30
2023-03-15T18:21:06.509Z,5.68
2023-03-15T18:23:33.658Z,7.35
2023-03-15T18:26:02.028Z,8.90
2023-03-15T18:28:29.296Z,9.02
2023-03-15T18:30:56.410Z,12.20
2023-03-15T18:33:23.502Z,13.52
2023-03-15T18:35:50.671Z,11.57
2023-03-15T18:38:17.979Z,14.98
2023-03-15T18:40:45.088Z,21.23
2023-03-15T18:43:14.113Z,20.50
2023-03-15T18:45:41.775Z,16.45
2023-03-15T18:48:08.980Z,17.13
2023-03-15T18:50:36.100Z,17.88
2023-03-15T18:53:06.139Z,12.93
2023-03-15T18:55:33.477Z,19.23
2023-03-15T18:58:00.685Z,17.83
2023-03-15T19:00:29.555Z,16.60
2023-03-15T19:02:57.556Z,16.85
2023-03-15T19:05:25.249Z,17.60
2023-03-15T19:07:52.516Z,18.38
2023-03-15T19:10:21.221Z,17.00
2023-03-15T19:12:48.823Z,22.00
2023-03-15T19:15:17.497Z,27.70
2023-03-15T19:17:45.680Z,22.50
2023-03-15T19:20:13.562Z,24.75
2023-03-15T19:22:41.490Z,25.00
2023-03-15T19:25:11.449Z,24.88
2023-03-15T19:27:38.618Z,22.85
2023-03-15T19:30:08.567Z,27.88
2023-03-15T19:32:36.494Z,27.50
2023-03-15T19:35:03.634Z,27.38
2023-03-15T19:37:30.796Z,28.02
2023-03-15T19:39:57.999Z,23.83
2023-03-15T19:42:25.141Z,28.98
2023-03-15T19:44:52.233Z,25.00
2023-03-15T19:47:19.433Z,24.42
2023-03-15T19:49:46.548Z,25.55
2023-03-15T19:52:15.910Z,28.98
2023-03-15T19:54:45.075Z,28.13
2023-03-15T19:57:12.296Z,34.65
2023-03-15T19:59:42.320Z,29.05
2023-03-15T20:02:13.103Z,31.13
2023-03-15T20:04:41.660Z,24.70
2023-03-15T20:07:11.184Z,21.50
2023-03-15T20:09:39.334Z,26.65
2023-03-15T20:12:07.326Z,26.52
2023-03-15T20:14:34.718Z,25.88
2023-03-15T20:17:02.079Z,23.02
2023-03-15T20:19:29.186Z,20.35
2023-03-15T20:21:57.825Z,20.42
2023-03-15T20:24:25.126Z,20.80
2023-03-15T20:26:52.460Z,20.23
2023-03-15T20:29:19.905Z,21.27
2023-03-15T20:31:47.137Z,27.02
2023-03-15T20:34:14.361Z,23.50
2023-03-15T20:36:41.893Z,23.48
2023-03-15T20:39:09.792Z,21.55
2023-03-15T20:41:38.986Z,14.85
2023-03-15T20:44:06.117Z,19.42
2023-03-15T20:46:33.751Z,18.50
2023-03-15T20:49:00.905Z,19.95
2023-03-15T20:51:28.375Z,19.05
2023-03-15T20:53:55.664Z,19.75
2023-03-15T20:56:22.856Z,22.42
2023-03-15T20:58:50.024Z,23.42
2023-03-15T21:01:17.326Z,23.17
2023-03-15T21:03:45.323Z,24.10
2023-03-15T21:06:12.990Z,25.48
2023-03-15T21:08:41.554Z,23.70
2023-03-15T21:11:08.761Z,21.02
2023-03-15T21:13:36.333Z,20.80
2023-03-15T21:16:05.067Z,19.13
2023-03-15T21:18:32.995Z,19.20
2023-03-15T21:21:01.294Z,20.25
2023-03-15T21:23:31.176Z,21.35
2023-03-15T21:25:59.091Z,19.83
2023-03-15T21:28:26.268Z,19.10
2023-03-15T21:30:54.029Z,21.48
2023-03-15T21:33:22.027Z,21.27
2023-03-15T21:35:49.526Z,21.48
2023-03-15T21:38:16.840Z,21.08
2023-03-15T21:40:46.908Z,21.20
2023-03-15T21:43:14.147Z,25.13
2023-03-15T21:45:42.484Z,20.25
2023-03-15T21:48:09.734Z,18.20
2023-03-15T21:50:37.160Z,16.17
2023-03-15T21:53:04.382Z,12.68
2023-03-15T21:55:33.621Z,14.15
2023-03-15T21:58:04.898Z,14.85
2023-03-15T22:00:32.597Z,14.82
2023-03-15T22:02:59.702Z,14.40
2023-03-15T22:05:26.779Z,13.48
2023-03-15T22:07:53.961Z,14.43
2023-03-15T22:10:22.516Z,14.82
2023-03-15T22:12:49.776Z,14.77
2023-03-15T22:15:16.930Z,16.55
2023-03-15T22:17:45.049Z,16.10
2023-03-15T22:20:16.342Z,15.55
2023-03-15T22:22:47.578Z,16.58
2023-03-15T22:25:14.782Z,16.45
2023-03-15T22:27:42.206Z,16.17
2023-03-15T22:30:10.260Z,15.65
2023-03-15T22:32:37.478Z,13.05
2023-03-15T22:35:04.897Z,14.73
2023-03-15T22:37:33.935Z,13.70
2023-03-15T22:40:01.203Z,13.52
2023-03-15T22:42:28.327Z,13.63
2023-03-15T22:44:55.545Z,14.18
2023-03-15T22:47:22.798Z,14.75
2023-03-15T22:49:50.130Z,13.88
2023-03-15T22:52:17.198Z,13.50
2023-03-15T22:54:44.414Z,13.80
2023-03-15T22:57:11.865Z,15.10
2023-03-15T22:59:39.677Z,13.65
2023-03-15T23:02:07.166Z,22.88
2023-03-15T23:04:34.335Z,34.63
2023-03-15T23:07:01.705Z,19.02
2023-03-15T23:09:28.937Z,16.20
2023-03-15T23:11:56.016Z,15.95
2023-03-15T23:14:23.113Z,16.52
2023-03-15T23:16:50.183Z,14.77
2023-03-15T23:19:17.296Z,13.07
2023-03-15T23:21:44.616Z,13.05
2023-03-15T23:24:13.905Z,12.82
2023-03-15T23:26:41.780Z,13.32
2023-03-15T23:29:10.782Z,12.35
2023-03-15T23:31:41.753Z,12.18
2023-03-15T23:34:09.562Z,13.50
2023-03-15T23:36:36.820Z,13.10
2023-03-15T23:39:04.405Z,13.40
2023-03-15T23:41:31.583Z,14.00
2023-03-15T23:43:58.733Z,14.25
2023-03-15T23:46:26.295Z,13.50
2023-03-15T23:48:54.131Z,13.75
2023-03-15T23:51:22.286Z,14.30
2023-03-15T23:53:49.521Z,14.07
2023-03-15T23:56:16.642Z,15.10
2023-03-15T23:58:43.727Z,14.07
